Time;durP1;ratioP1;P1;durP2;ratioP2;P2;SDS_P1;SDS_P2;PMS_P1;PMS_P2;Temp;Humidity;BMP_temperature;BMP_pressure;BME280_temperature;BME280_humidity;BME280_pressure;Samples;Min_cycle;Max_cycle;Signal;HPM_P1;HPM_P2
2024/03/16 00:01:34;;;;;;;4.07;0.87;;;12.60;99.90;;;;;;5057012;28;20969;-56
2024/03/16 00:04:01;;;;;;;2.37;0.80;;;12.60;99.90;;;;;;5057637;28;20451;-56
2024/03/16 00:06:29;;;;;;;4.83;0.80;;;12.60;99.90;;;;;;5057162;28;20441;-56
2024/03/16 00:08:56;;;;;;;3.70;0.80;;;12.50;99.90;;;;;;5057187;28;20978;-56
2024/03/16 00:11:23;;;;;;;3.20;1.00;;;12.50;99.90;;;;;;5057428;28;20443;-56
2024/03/16 00:13:50;;;;;;;4.00;0.80;;;12.50;99.90;;;;;;5057154;28;20537;-56
2024/03/16 00:16:16;;;;;;;1.97;1.00;;;12.40;99.90;;;;;;5057048;28;20571;-55
2024/03/16 00:18:43;;;;;;;2.93;1.20;;;12.40;99.90;;;;;;5056886;28;20471;-55
2024/03/16 00:21:09;;;;;;;1.43;0.70;;;12.40;99.90;;;;;;5057326;28;20467;-55
2024/03/16 00:23:36;;;;;;;1.90;1.10;;;12.40;99.90;;;;;;5057224;28;20445;-56
2024/03/16 00:26:03;;;;;;;2.70;1.00;;;12.40;99.90;;;;;;5057094;28;20447;-56
2024/03/16 00:28:30;;;;;;;0.90;0.60;;;12.40;99.90;;;;;;5057025;28;20488;-56
2024/03/16 00:30:57;;;;;;;4.13;1.00;;;12.40;99.90;;;;;;5057029;28;20445;-56
2024/03/16 00:33:24;;;;;;;2.67;0.90;;;12.40;99.90;;;;;;5057039;28;20444;-56
2024/03/16 00:35:51;;;;;;;2.87;1.10;;;12.40;99.90;;;;;;5056767;28;20864;-56
2024/03/16 00:38:18;;;;;;;8.37;1.47;;;12.40;99.90;;;;;;5056464;28;20499;-56
2024/03/16 00:40:45;;;;;;;4.50;1.30;;;12.40;99.90;;;;;;5056848;28;20542;-56
2024/03/16 00:43:17;;;;;;;1.97;1.03;;;12.50;99.90;;;;;;5056824;28;20441;-56
2024/03/16 00:45:44;;;;;;;2.80;0.97;;;12.50;99.90;;;;;;5057618;28;20520;-56
2024/03/16 00:48:12;;;;;;;5.67;1.20;;;12.50;99.90;;;;;;5056300;28;20963;-56
2024/03/16 00:50:39;;;;;;;4.20;1.20;;;12.50;99.90;;;;;;5056495;28;20938;-56
2024/03/16 00:53:06;;;;;;;2.30;1.13;;;12.50;99.90;;;;;;5056165;28;20447;-56
2024/03/16 00:55:34;;;;;;;2.43;1.00;;;12.50;99.90;;;;;;5055779;28;20440;-55
2024/03/16 00:58:01;;;;;;;4.40;1.00;;;12.50;99.90;;;;;;5056213;28;20485;-56
2024/03/16 01:00:31;;;;;;;2.13;0.80;;;12.50;99.90;;;;;;5056376;28;20440;-56
2024/03/16 01:02:58;;;;;;;1.73;0.90;;;12.50;99.90;;;;;;5056395;28;20935;-56
2024/03/16 01:05:26;;;;;;;6.23;1.40;;;12.50;99.90;;;;;;5056452;28;20539;-56
2024/03/16 01:07:53;;;;;;;3.00;0.80;;;12.50;99.90;;;;;;5056211;28;20978;-56
2024/03/16 01:10:21;;;;;;;6.00;1.03;;;12.50;99.90;;;;;;5056227;28;20433;-56
2024/03/16 01:12:48;;;;;;;4.80;1.17;;;12.50;99.90;;;;;;5056064;28;20958;-55
2024/03/16 01:15:16;;;;;;;3.50;0.90;;;12.50;99.90;;;;;;5055701;28;20488;-55
2024/03/16 01:17:43;;;;;;;3.97;1.27;;;12.50;99.90;;;;;;5056231;28;20506;-56
2024/03/16 01:20:10;;;;;;;2.00;0.70;;;12.60;99.90;;;;;;5055858;28;20443;-56
2024/03/16 01:22:37;;;;;;;4.67;1.20;;;12.60;99.90;;;;;;5056161;28;20455;-56
2024/03/16 01:25:05;;;;;;;4.57;1.20;;;12.50;99.90;;;;;;5055779;28;20451;-56
2024/03/16 01:27:33;;;;;;;6.23;1.13;;;12.50;99.90;;;;;;5055817;28;20518;-56
2024/03/16 01:30:00;;;;;;;3.03;0.97;;;12.50;99.90;;;;;;5054422;28;20809;-56
2024/03/16 01:32:27;;;;;;;5.27;1.13;;;12.50;99.90;;;;;;5055980;28;20445;-56
2024/03/16 01:34:53;;;;;;;2.77;1.00;;;12.40;99.90;;;;;;5055966;28;20443;-55
2024/03/16 01:37:20;;;;;;;2.20;0.80;;;12.30;99.90;;;;;;5055887;28;20575;-56
2024/03/16 01:39:49;;;;;;;5.50;1.03;;;12.30;99.90;;;;;;5055612;28;20888;-55
2024/03/16 01:42:16;;;;;;;6.33;1.47;;;12.30;99.90;;;;;;5056036;28;20441;-55
2024/03/16 01:44:49;;;;;;;3.80;1.20;;;12.20;99.90;;;;;;5055732;28;20441;-55
2024/03/16 01:47:16;;;;;;;6.20;1.20;;;12.20;99.90;;;;;;5056012;28;20822;-56
2024/03/16 01:49:43;;;;;;;10.13;1.90;;;12.20;99.90;;;;;;5055731;28;20805;-56
2024/03/16 01:52:10;;;;;;;3.90;1.67;;;12.20;99.90;;;;;;5055655;28;20854;-56
2024/03/16 01:54:37;;;;;;;5.40;1.43;;;12.20;99.90;;;;;;5055554;28;20539;-56
2024/03/16 01:57:03;;;;;;;4.17;1.40;;;12.20;99.90;;;;;;5055039;28;21036;-56
2024/03/16 01:59:30;;;;;;;7.33;2.53;;;12.20;99.90;;;;;;5055201;28;20969;-55
2024/03/16 02:01:57;;;;;;;6.60;1.53;;;12.20;99.90;;;;;;5055618;28;20549;-56
2024/03/16 02:04:24;;;;;;;5.10;1.00;;;12.20;99.90;;;;;;5055258;28;20479;-56
2024/03/16 02:06:51;;;;;;;4.77;1.10;;;12.20;99.90;;;;;;5055338;28;20432;-56
2024/03/16 02:09:19;;;;;;;5.37;1.57;;;12.20;99.90;;;;;;5055524;28;20441;-55
2024/03/16 02:11:46;;;;;;;6.17;1.70;;;12.20;99.90;;;;;;5055627;28;20444;-55
2024/03/16 02:14:13;;;;;;;5.83;1.60;;;12.20;99.90;;;;;;5055811;28;20801;-56
2024/03/16 02:16:40;;;;;;;3.87;1.60;;;12.20;99.90;;;;;;5055133;28;20567;-56
2024/03/16 02:19:07;;;;;;;4.77;1.63;;;12.20;99.90;;;;;;5055296;28;20535;-56
2024/03/16 02:21:34;;;;;;;7.30;1.97;;;12.20;99.90;;;;;;5055513;28;20455;-56
2024/03/16 02:24:01;;;;;;;8.80;1.90;;;12.20;99.90;;;;;;5055985;28;20489;-56
2024/03/16 02:26:28;;;;;;;9.20;2.00;;;12.20;99.90;;;;;;5059139;28;20863;-56
2024/03/16 02:28:55;;;;;;;7.20;2.10;;;12.20;99.90;;;;;;5059401;28;20459;-56
2024/03/16 02:31:22;;;;;;;4.40;1.50;;;12.10;99.90;;;;;;5059698;28;20448;-56
2024/03/16 02:33:49;;;;;;;9.63;2.57;;;12.10;99.90;;;;;;5059646;28;20441;-56
2024/03/16 02:36:16;;;;;;;5.70;2.07;;;12.10;99.90;;;;;;5059578;28;20451;-56
2024/03/16 02:38:43;;;;;;;5.43;1.90;;;12.10;99.90;;;;;;5059313;28;20492;-55
2024/03/16 02:41:10;;;;;;;5.93;1.90;;;12.10;99.90;;;;;;5059372;28;20498;-56
2024/03/16 02:43:37;;;;;;;6.83;2.20;;;12.10;99.90;;;;;;5059384;28;20825;-55
2024/03/16 02:46:05;;;;;;;6.33;2.57;;;12.10;99.90;;;;;;5059577;28;20436;-56
2024/03/16 02:48:32;;;;;;;4.73;2.00;;;12.10;99.90;;;;;;5059390;28;20496;-56
2024/03/16 02:50:59;;;;;;;4.30;2.40;;;12.10;99.90;;;;;;5059383;28;20440;-56
2024/03/16 02:53:25;;;;;;;7.10;2.47;;;12.00;99.90;;;;;;5059310;28;20810;-56
2024/03/16 02:55:52;;;;;;;6.90;3.00;;;12.10;99.90;;;;;;5058976;28;20444;-56
2024/03/16 02:58:19;;;;;;;10.90;2.70;;;12.00;99.90;;;;;;5059068;28;20506;-55
2024/03/16 03:00:47;;;;;;;5.97;3.20;;;12.10;99.90;;;;;;5058915;28;20436;-55
2024/03/16 03:03:14;;;;;;;3.80;2.80;;;12.00;99.90;;;;;;5058908;28;20460;-56
2024/03/16 03:05:42;;;;;;;7.40;3.30;;;12.00;99.90;;;;;;5058405;28;20440;-56
2024/03/16 03:08:10;;;;;;;10.03;3.60;;;12.00;99.90;;;;;;5058828;28;20877;-56
2024/03/16 03:10:39;;;;;;;5.20;3.00;;;12.00;99.90;;;;;;5058849;28;20499;-56
2024/03/16 03:13:06;;;;;;;4.27;3.80;;;12.00;99.90;;;;;;5058931;28;20448;-55
2024/03/16 03:15:35;;;;;;;8.40;3.47;;;12.00;99.90;;;;;;5058475;28;20439;-55
2024/03/16 03:18:03;;;;;;;3.80;3.20;;;12.10;99.90;;;;;;5058556;28;20524;-56
2024/03/16 03:20:29;;;;;;;5.43;3.27;;;12.10;99.90;;;;;;5058514;28;20440;-55
2024/03/16 03:22:56;;;;;;;10.57;3.90;;;12.10;99.90;;;;;;5058069;28;20449;-55
2024/03/16 03:25:23;;;;;;;4.83;3.57;;;12.10;99.90;;;;;;5058124;28;20436;-55
2024/03/16 03:27:50;;;;;;;8.00;3.90;;;12.10;99.90;;;;;;5058248;28;20456;-56
2024/03/16 03:30:17;;;;;;;5.80;3.10;;;12.10;99.90;;;;;;5058180;28;20440;-55
2024/03/16 03:32:44;;;;;;;4.77;3.53;;;12.10;99.90;;;;;;5058228;28;20440;-55
2024/03/16 03:35:11;;;;;;;4.03;2.53;;;12.10;99.90;;;;;;5058225;28;20466;-55
2024/03/16 03:37:38;;;;;;;7.00;3.77;;;12.10;99.90;;;;;;5057268;28;20485;-56
2024/03/16 03:40:05;;;;;;;6.63;3.20;;;12.20;99.90;;;;;;5058115;28;20444;-55
2024/03/16 03:42:34;;;;;;;5.03;3.33;;;12.10;99.90;;;;;;5058130;28;20452;-56
2024/03/16 03:45:11;;;;;;;7.40;3.47;;;12.10;99.90;;;;;;5058383;28;20874;-55
2024/03/16 03:47:49;;;;;;;4.20;3.60;;;12.10;99.90;;;;;;5059192;28;20993;-56
2024/03/16 03:50:26;;;;;;;7.77;4.20;;;12.10;99.90;;;;;;5059545;28;20512;-56
2024/03/16 03:52:53;;;;;;;8.50;3.90;;;12.10;99.90;;;;;;5059279;28;20433;-56
2024/03/16 03:55:20;;;;;;;6.30;4.50;;;12.10;99.90;;;;;;5057921;28;20437;-56
2024/03/16 03:57:47;;;;;;;9.40;3.90;;;12.10;99.90;;;;;;5057506;28;20496;-56
2024/03/16 04:00:15;;;;;;;8.00;4.00;;;12.20;99.90;;;;;;5057661;28;20444;-56
2024/03/16 04:02:42;;;;;;;5.63;3.90;;;12.20;99.90;;;;;;5057718;28;20487;-55
2024/03/16 04:05:09;;;;;;;8.33;4.20;;;12.10;99.90;;;;;;5057582;28;20523;-56
2024/03/16 04:07:36;;;;;;;7.97;3.67;;;12.10;99.90;;;;;;5057386;28;20463;-56
2024/03/16 04:10:02;;;;;;;5.07;3.97;;;12.10;99.90;;;;;;5057463;28;20443;-55
2024/03/16 04:12:29;;;;;;;6.83;4.37;;;12.10;99.90;;;;;;5057408;28;20451;-55
2024/03/16 04:14:56;;;;;;;7.20;4.23;;;12.10;99.90;;;;;;5057451;28;20443;-56
2024/03/16 04:17:23;;;;;;;6.40;4.33;;;12.10;99.90;;;;;;5057210;28;20484;-56
2024/03/16 04:19:50;;;;;;;5.53;4.50;;;12.10;99.90;;;;;;5057354;28;20509;-56
2024/03/16 04:22:17;;;;;;;9.20;4.53;;;12.20;99.90;;;;;;5057208;28;20452;-56
2024/03/16 04:24:44;;;;;;;5.47;4.80;;;12.10;99.90;;;;;;5057353;28;20445;-56
2024/03/16 04:27:11;;;;;;;7.37;4.87;;;12.20;99.90;;;;;;5056770;28;20845;-57
2024/03/16 04:29:38;;;;;;;8.10;4.33;;;12.20;99.90;;;;;;5057065;28;20440;-57
2024/03/16 04:32:05;;;;;;;8.37;4.23;;;12.20;99.90;;;;;;5057132;28;20448;-57
2024/03/16 04:34:32;;;;;;;7.67;5.00;;;12.20;99.90;;;;;;5057011;28;20441;-58
2024/03/16 04:36:59;;;;;;;7.27;4.10;;;12.10;99.90;;;;;;5056875;28;20518;-57
2024/03/16 04:39:26;;;;;;;6.23;5.30;;;12.10;99.90;;;;;;5057719;28;20445;-57
2024/03/16 04:41:53;;;;;;;8.90;6.20;;;12.10;99.90;;;;;;5056837;28;20501;-57
2024/03/16 04:44:20;;;;;;;9.80;5.60;;;12.10;99.90;;;;;;5056877;28;20445;-57
2024/03/16 04:46:47;;;;;;;8.37;5.90;;;12.00;99.90;;;;;;5056349;28;20888;-57
2024/03/16 04:49:14;;;;;;;7.27;6.50;;;12.10;99.90;;;;;;5055483;28;20931;-57
2024/03/16 04:51:41;;;;;;;8.00;6.47;;;12.00;99.90;;;;;;5057185;28;20501;-57
2024/03/16 04:54:08;;;;;;;9.20;5.67;;;12.00;99.90;;;;;;5056386;28;20440;-57
2024/03/16 04:56:35;;;;;;;9.07;7.00;;;12.00;99.90;;;;;;5056409;28;20468;-57
2024/03/16 04:59:01;;;;;;;10.13;6.60;;;12.00;99.90;;;;;;5056395;28;20485;-57
2024/03/16 05:01:28;;;;;;;9.00;6.63;;;12.00;99.90;;;;;;5056533;28;20437;-57
2024/03/16 05:03:56;;;;;;;8.30;6.50;;;12.00;99.90;;;;;;5056464;28;20448;-57
2024/03/16 05:06:23;;;;;;;11.50;7.00;;;12.00;99.90;;;;;;5056484;28;20440;-57
2024/03/16 05:08:50;;;;;;;10.93;7.47;;;12.00;99.90;;;;;;5056118;28;20475;-57
2024/03/16 05:11:17;;;;;;;10.30;7.43;;;12.00;99.90;;;;;;5055944;28;20475;-56
2024/03/16 05:13:44;;;;;;;12.40;7.60;;;12.00;99.90;;;;;;5056334;28;20812;-56
2024/03/16 05:16:11;;;;;;;8.90;6.83;;;12.00;99.90;;;;;;5056017;28;20809;-57
2024/03/16 05:18:38;;;;;;;8.23;7.33;;;12.00;99.90;;;;;;5056061;28;20491;-56
2024/03/16 05:21:06;;;;;;;10.40;7.80;;;12.00;99.90;;;;;;5055859;28;20440;-56
2024/03/16 05:23:33;;;;;;;8.40;7.23;;;12.00;99.90;;;;;;5057243;28;20453;-56
2024/03/16 05:26:00;;;;;;;9.83;7.13;;;12.00;99.90;;;;;;5056027;28;20532;-56
2024/03/16 05:28:27;;;;;;;10.70;7.33;;;12.00;99.90;;;;;;5055845;28;20522;-56
2024/03/16 05:30:54;;;;;;;9.17;7.50;;;12.00;99.90;;;;;;5055986;28;20436;-56
2024/03/16 05:33:21;;;;;;;9.73;6.90;;;12.00;99.90;;;;;;5056027;28;20456;-57
2024/03/16 05:35:48;;;;;;;9.90;7.90;;;12.00;99.90;;;;;;5055932;28;20440;-57
2024/03/16 05:38:16;;;;;;;12.33;7.70;;;12.00;99.90;;;;;;5055482;28;20860;-57
2024/03/16 05:40:45;;;;;;;10.50;6.93;;;12.00;99.90;;;;;;5056224;28;20490;-56
2024/03/16 05:43:12;;;;;;;11.60;8.40;;;11.90;99.90;;;;;;5056340;28;20449;-56
2024/03/16 05:45:39;;;;;;;10.73;8.70;;;11.90;99.90;;;;;;5055536;28;20939;-56
2024/03/16 05:48:07;;;;;;;14.43;8.70;;;11.90;99.90;;;;;;5055856;28;20469;-56
2024/03/16 05:50:35;;;;;;;15.73;9.30;;;11.90;99.90;;;;;;5055530;28;20480;-56
2024/03/16 05:53:02;;;;;;;16.40;9.60;;;11.80;99.90;;;;;;5056345;28;20484;-56
2024/03/16 05:55:30;;;;;;;13.30;8.83;;;11.80;99.90;;;;;;5055847;28;20441;-57
2024/03/16 05:57:56;;;;;;;12.60;9.07;;;11.80;99.90;;;;;;5055714;28;20484;-57
2024/03/16 06:00:23;;;;;;;10.53;7.63;;;11.70;99.90;;;;;;5055718;28;20458;-56
2024/03/16 06:02:50;;;;;;;9.20;6.40;;;11.80;99.90;;;;;;5055419;28;20448;-56
2024/03/16 06:05:18;;;;;;;7.40;5.47;;;11.80;99.90;;;;;;5055780;28;20441;-56
2024/03/16 06:07:45;;;;;;;6.80;5.30;;;11.70;99.90;;;;;;5055677;28;20465;-56
2024/03/16 06:10:12;;;;;;;7.23;4.13;;;11.70;99.90;;;;;;5055565;28;20486;-56
2024/03/16 06:12:39;;;;;;;8.30;5.20;;;11.60;99.90;;;;;;5055569;28;20449;-56
2024/03/16 06:15:06;;;;;;;7.93;4.90;;;11.60;99.90;;;;;;5055797;28;20436;-56
2024/03/16 06:17:34;;;;;;;6.07;4.87;;;11.50;99.90;;;;;;5055176;28;20932;-56
2024/03/16 06:20:03;;;;;;;6.80;4.93;;;11.60;99.90;;;;;;5055386;28;20466;-56
2024/03/16 06:22:30;;;;;;;7.13;4.87;;;11.50;99.90;;;;;;5055752;28;20444;-56
2024/03/16 06:24:57;;;;;;;5.00;4.50;;;11.50;99.90;;;;;;5055866;28;20551;-57
2024/03/16 06:27:25;;;;;;;7.20;5.17;;;11.50;99.90;;;;;;5055521;28;20812;-56
2024/03/16 06:29:52;;;;;;;7.50;5.47;;;11.50;99.90;;;;;;5055563;28;20527;-56
2024/03/16 06:32:21;;;;;;;11.10;5.30;;;11.50;99.90;;;;;;5055788;28;20445;-57
2024/03/16 06:34:48;;;;;;;10.70;5.53;;;11.40;99.90;;;;;;5055797;28;20443;-56
2024/03/16 06:37:15;;;;;;;11.60;5.93;;;11.40;99.90;;;;;;5055542;28;20464;-56
2024/03/16 06:39:42;;;;;;;6.07;5.10;;;11.40;99.90;;;;;;5055482;28;20488;-56
2024/03/16 06:42:10;;;;;;;7.93;6.80;;;11.40;99.90;;;;;;5055083;28;20441;-56
2024/03/16 06:44:37;;;;;;;10.70;6.53;;;11.40;99.90;;;;;;5055246;28;20502;-56
2024/03/16 06:47:04;;;;;;;9.07;6.33;;;11.50;99.90;;;;;;5055567;28;20560;-56
2024/03/16 06:49:31;;;;;;;6.70;6.10;;;11.50;99.90;;;;;;5055312;28;20437;-56
2024/03/16 06:52:01;;;;;;;9.67;6.30;;;11.50;99.90;;;;;;5055380;28;20540;-56
2024/03/16 06:54:28;;;;;;;10.13;6.43;;;11.50;99.90;;;;;;5055406;28;20950;-56
2024/03/16 06:56:55;;;;;;;6.23;5.67;;;11.50;99.90;;;;;;5054949;28;20547;-56
2024/03/16 06:59:22;;;;;;;8.07;6.33;;;11.60;99.90;;;;;;5055052;28;20573;-56
2024/03/16 07:01:49;;;;;;;8.13;5.80;;;11.60;99.90;;;;;;5055530;28;20436;-56
2024/03/16 07:04:16;;;;;;;6.20;5.70;;;11.60;99.90;;;;;;5054872;28;21014;-56
2024/03/16 07:06:43;;;;;;;9.53;5.60;;;11.30;99.90;;;;;;5054762;28;21010;-56
2024/03/16 07:09:11;;;;;;;6.93;5.90;;;11.30;99.90;;;;;;5054697;28;20935;-56
2024/03/16 07:11:38;;;;;;;7.50;6.70;;;11.20;99.90;;;;;;5055030;28;20825;-56
2024/03/16 07:14:04;;;;;;;7.57;5.93;;;11.20;99.90;;;;;;5058384;28;20535;-56
2024/03/16 07:16:31;;;;;;;7.70;5.50;;;11.20;99.90;;;;;;5058568;28;20440;-56
2024/03/16 07:18:58;;;;;;;7.00;5.40;;;11.20;99.90;;;;;;5058360;28;20488;-56
2024/03/16 07:21:25;;;;;;;5.93;5.33;;;11.30;99.90;;;;;;5058118;28;20943;-56
2024/03/16 07:23:53;;;;;;;5.83;5.23;;;11.30;99.90;;;;;;5058350;28;20442;-56
2024/03/16 07:26:20;;;;;;;7.70;5.33;;;11.30;99.90;;;;;;5058546;28;20506;-56
2024/03/16 07:28:46;;;;;;;7.30;6.00;;;11.30;99.90;;;;;;5058105;28;20536;-56
2024/03/16 07:31:13;;;;;;;7.47;6.43;;;11.30;99.90;;;;;;5058096;28;20444;-56
2024/03/16 07:33:40;;;;;;;8.37;7.57;;;11.30;99.90;;;;;;5058109;28;20490;-56
2024/03/16 07:36:08;;;;;;;7.47;6.77;;;11.40;99.90;;;;;;5058070;28;20436;-56
2024/03/16 07:38:35;;;;;;;6.27;5.77;;;11.50;99.90;;;;;;5058042;28;20531;-56
2024/03/16 07:41:03;;;;;;;7.10;4.97;;;11.60;99.90;;;;;;5057699;28;20960;-56
2024/03/16 07:43:30;;;;;;;6.27;4.63;;;11.70;99.90;;;;;;5058769;28;20448;-56
2024/03/16 07:45:57;;;;;;;5.70;4.30;;;11.70;99.90;;;;;;5057993;28;20439;-56
2024/03/16 07:48:25;;;;;;;6.23;4.80;;;11.60;99.90;;;;;;5057469;28;20538;-56
2024/03/16 07:50:59;;;;;;;4.63;3.60;;;11.60;99.90;;;;;;5057993;28;20444;-56
2024/03/16 07:53:27;;;;;;;5.03;3.77;;;11.70;99.90;;;;;;5057970;28;20435;-56
2024/03/16 07:55:54;;;;;;;3.90;3.30;;;11.80;99.90;;;;;;5057774;28;20456;-56
2024/03/16 07:58:21;;;;;;;4.57;3.20;;;11.90;99.90;;;;;;5057696;28;20488;-55
2024/03/16 08:00:48;;;;;;;3.63;2.90;;;11.90;99.90;;;;;;5057428;28;20440;-56
2024/03/16 08:03:15;;;;;;;4.43;2.80;;;11.90;99.90;;;;;;5057328;28;20966;-56
2024/03/16 08:05:41;;;;;;;7.50;3.97;;;11.90;99.90;;;;;;5057711;28;20471;-55
2024/03/16 08:08:08;;;;;;;3.37;2.10;;;11.90;99.90;;;;;;5057288;28;20472;-56
2024/03/16 08:10:35;;;;;;;3.63;2.70;;;12.00;99.90;;;;;;5057013;28;20949;-55
2024/03/16 08:13:02;;;;;;;6.00;2.40;;;12.00;99.90;;;;;;5057391;28;20550;-55
2024/03/16 08:15:29;;;;;;;3.80;2.50;;;12.20;99.90;;;;;;5057108;28;20446;-55
2024/03/16 08:17:57;;;;;;;3.37;3.07;;;12.20;99.90;;;;;;5057019;28;20971;-56
2024/03/16 08:20:24;;;;;;;4.37;2.80;;;12.20;99.90;;;;;;5057121;28;20852;-55
2024/03/16 08:22:54;;;;;;;2.60;2.27;;;12.10;99.90;;;;;;5057100;28;20443;-55
2024/03/16 08:25:21;;;;;;;3.23;2.63;;;12.10;99.90;;;;;;5057287;28;20444;-56
2024/03/16 08:27:48;;;;;;;6.53;2.30;;;12.10;99.90;;;;;;5057093;28;20460;-55
2024/03/16 08:30:15;;;;;;;2.77;2.13;;;12.10;99.90;;;;;;5056733;28;20941;-56
2024/03/16 08:32:42;;;;;;;3.63;2.37;;;12.10;99.90;;;;;;5056942;28;20436;-55
2024/03/16 08:35:09;;;;;;;4.77;2.20;;;12.20;99.90;;;;;;5056948;28;20445;-56
2024/03/16 08:37:36;;;;;;;3.90;1.70;;;12.10;99.90;;;;;;5056897;28;20488;-56
2024/03/16 08:40:11;;;;;;;5.13;2.00;;;12.10;99.90;;;;;;5056822;28;20483;-55
2024/03/16 08:42:39;;;;;;;3.50;1.70;;;12.20;99.90;;;;;;5058263;28;20445;-55
2024/03/16 08:45:07;;;;;;;6.83;2.43;;;12.20;99.90;;;;;;5056955;28;20444;-55
2024/03/16 08:47:34;;;;;;;6.33;1.70;;;12.10;99.90;;;;;;5056856;28;20463;-55
2024/03/16 08:50:01;;;;;;;2.33;1.27;;;12.10;99.90;;;;;;5056364;28;20507;-55
2024/03/16 08:52:28;;;;;;;5.20;1.67;;;12.10;99.90;;;;;;5056618;28;20447;-56
2024/03/16 08:54:55;;;;;;;3.53;1.17;;;12.10;99.90;;;;;;5056474;28;20447;-56
2024/03/16 08:57:22;;;;;;;6.57;1.73;;;12.10;99.90;;;;;;5056387;28;21000;-56
2024/03/16 08:59:51;;;;;;;4.10;1.37;;;12.10;99.90;;;;;;5056443;28;20488;-55
2024/03/16 09:02:19;;;;;;;3.63;1.10;;;12.10;99.90;;;;;;5056707;28;20494;-55
2024/03/16 09:04:47;;;;;;;1.43;1.20;;;12.20;99.90;;;;;;5056734;28;20451;-55
2024/03/16 09:07:14;;;;;;;6.30;1.43;;;12.20;99.90;;;;;;5056355;28;20465;-56
2024/03/16 09:09:41;;;;;;;2.63;1.10;;;12.30;99.90;;;;;;5056270;28;20440;-55
2024/03/16 09:12:09;;;;;;;1.63;1.10;;;12.40;99.90;;;;;;5056277;28;20440;-55
2024/03/16 09:14:36;;;;;;;4.03;1.20;;;12.50;99.90;;;;;;5056486;28;20451;-55
2024/03/16 09:17:04;;;;;;;3.73;1.43;;;12.60;99.90;;;;;;5055893;28;20465;-56
2024/03/16 09:19:32;;;;;;;3.13;1.13;;;12.60;99.90;;;;;;5056225;28;20491;-56
2024/03/16 09:21:59;;;;;;;4.73;1.73;;;12.60;99.90;;;;;;5056300;28;20490;-56
2024/03/16 09:24:27;;;;;;;3.60;1.30;;;12.50;99.90;;;;;;5055841;28;20829;-56
2024/03/16 09:26:53;;;;;;;3.93;0.97;;;12.30;99.90;;;;;;5056069;28;20939;-57
2024/03/16 09:29:20;;;;;;;1.83;1.10;;;12.20;99.90;;;;;;5055939;28;20451;-57
2024/03/16 09:31:47;;;;;;;0.93;0.83;;;12.10;99.90;;;;;;5055629;28;21033;-57
2024/03/16 09:34:14;;;;;;;3.00;1.27;;;12.20;99.90;;;;;;5055604;28;20444;-57
2024/03/16 09:36:41;;;;;;;2.00;1.37;;;12.10;99.90;;;;;;5055821;28;20451;-57
2024/03/16 09:39:10;;;;;;;1.60;1.07;;;12.20;99.90;;;;;;5055813;28;20480;-57
2024/03/16 09:41:38;;;;;;;4.00;0.90;;;12.30;99.90;;;;;;5055863;28;20472;-57
2024/03/16 09:44:04;;;;;;;3.87;1.23;;;12.50;99.90;;;;;;5055964;28;20444;-57
2024/03/16 09:46:31;;;;;;;2.50;1.40;;;12.70;99.90;;;;;;5055788;28;20439;-57
2024/03/16 09:48:58;;;;;;;4.13;1.57;;;13.00;99.90;;;;;;5055642;28;20548;-57
2024/03/16 09:51:25;;;;;;;2.80;1.40;;;13.40;99.90;;;;;;5055437;28;20440;-57
2024/03/16 09:53:53;;;;;;;3.57;1.50;;;13.60;99.90;;;;;;5055346;28;20448;-57
2024/03/16 09:56:20;;;;;;;2.90;1.30;;;13.70;99.90;;;;;;5055439;28;20456;-57
2024/03/16 09:58:46;;;;;;;2.23;1.10;;;13.80;99.90;;;;;;5055313;28;20460;-57
2024/03/16 10:01:15;;;;;;;3.80;1.17;;;13.90;99.90;;;;;;5055630;28;20433;-57
2024/03/16 10:03:42;;;;;;;3.30;1.43;;;14.00;99.90;;;;;;5056159;28;20451;-57
2024/03/16 10:06:11;;;;;;;2.20;1.20;;;14.00;99.90;;;;;;5055721;28;20444;-57
2024/03/16 10:08:38;;;;;;;2.33;1.57;;;14.00;99.90;;;;;;5055260;28;20467;-57
2024/03/16 10:11:10;;;;;;;2.40;1.30;;;13.80;99.20;;;;;;5055448;28;20464;-57
2024/03/16 10:13:38;;;;;;;5.13;1.83;;;13.80;99.20;;;;;;5055771;28;20417;-57
2024/03/16 10:16:06;;;;;;;3.67;1.17;;;13.70;99.00;;;;;;5055586;28;20543;-57
2024/03/16 10:18:34;;;;;;;2.97;1.10;;;13.60;98.80;;;;;;5055577;28;20468;-56
2024/03/16 10:21:01;;;;;;;2.30;1.17;;;13.60;99.20;;;;;;5055491;28;20522;-57
2024/03/16 10:23:28;;;;;;;2.30;1.20;;;13.60;98.80;;;;;;5055449;28;20436;-56
2024/03/16 10:25:56;;;;;;;2.30;1.23;;;13.50;98.00;;;;;;5055153;28;20456;-56
2024/03/16 10:28:23;;;;;;;4.30;1.27;;;13.30;98.40;;;;;;5055111;28;20464;-56
2024/03/16 10:30:49;;;;;;;1.67;1.10;;;13.30;98.30;;;;;;5055315;28;20476;-56
2024/03/16 10:33:18;;;;;;;1.43;0.93;;;13.20;97.40;;;;;;5054913;28;20972;-56
2024/03/16 10:35:45;;;;;;;2.67;1.13;;;13.10;97.40;;;;;;5055528;28;20448;-56
2024/03/16 10:38:12;;;;;;;2.30;0.93;;;13.10;97.10;;;;;;5055280;28;20555;-56
2024/03/16 10:40:40;;;;;;;1.03;0.93;;;13.20;97.40;;;;;;5055247;28;20674;-56
2024/03/16 10:43:08;;;;;;;3.20;2.10;;;13.30;97.00;;;;;;5055340;28;20523;-56
2024/03/16 10:45:35;;;;;;;1.50;1.10;;;13.40;96.00;;;;;;5055124;28;20441;-56
2024/03/16 10:48:02;;;;;;;3.40;1.00;;;13.60;96.60;;;;;;5057652;28;20460;-56
2024/03/16 10:50:30;;;;;;;2.30;1.00;;;13.70;96.10;;;;;;5058979;28;20437;-56
2024/03/16 10:52:57;;;;;;;4.03;1.80;;;13.90;95.50;;;;;;5059700;28;20786;-56
2024/03/16 10:55:24;;;;;;;3.50;1.47;;;14.00;94.70;;;;;;5058974;28;20463;-56
2024/03/16 10:57:51;;;;;;;3.20;1.20;;;14.00;93.90;;;;;;5058557;28;20474;-56
2024/03/16 11:00:29;;;;;;;4.33;1.30;;;13.90;94.50;;;;;;5058827;28;20534;-56
2024/03/16 11:03:00;;;;;;;6.70;1.13;;;13.70;93.20;;;;;;5059082;28;20516;-56
2024/03/16 11:05:33;;;;;;;1.20;0.90;;;13.50;93.60;;;;;;5058682;28;20926;-56
2024/03/16 11:08:00;;;;;;;1.60;1.17;;;13.40;93.70;;;;;;5058706;28;20836;-56
2024/03/16 11:10:48;;;;;;;2.17;0.83;;;13.30;93.70;;;;;;5058700;28;20441;-56
2024/03/16 11:13:16;;;;;;;2.90;0.70;;;13.20;94.00;;;;;;5074889;28;20425;-56
2024/03/16 11:15:44;;;;;;;2.87;1.03;;;13.30;94.00;;;;;;5058402;28;20850;-56
2024/03/16 11:18:43;;;;;;;3.20;0.80;;;13.30;93.50;;;;;;5058539;28;20487;-56
2024/03/16 11:21:16;;;;;;;4.80;1.00;;;13.40;92.90;;;;;;5075040;28;20465;-55
2024/03/16 11:23:43;;;;;;;1.10;0.80;;;13.50;92.90;;;;;;5059021;28;20813;-56
2024/03/16 11:26:43;;;;;;;2.33;1.00;;;13.50;92.90;;;;;;5058423;28;20551;-56
2024/03/16 11:29:15;;;;;;;4.27;1.47;;;13.40;91.70;;;;;;5069910;28;20453;-56
2024/03/16 11:31:44;;;;;;;1.17;0.80;;;13.40;92.80;;;;;;5058220;28;20503;-55
2024/03/16 11:34:11;;;;;;;2.10;1.13;;;13.30;92.90;;;;;;5058456;28;20464;-56
2024/03/16 11:36:44;;;;;;;1.83;1.73;;;13.50;93.20;;;;;;5058234;28;20445;-56
2024/03/16 11:39:11;;;;;;;1.70;0.90;;;13.60;93.00;;;;;;5059085;28;20428;-56
2024/03/16 11:41:44;;;;;;;1.70;1.13;;;13.60;92.30;;;;;;5058001;28;20492;-56
2024/03/16 11:44:13;;;;;;;3.10;0.90;;;13.70;91.00;;;;;;5058538;28;20453;-56
2024/03/16 11:46:41;;;;;;;2.23;1.40;;;13.70;91.10;;;;;;5057975;28;20452;-56
2024/03/16 11:49:10;;;;;;;1.63;1.40;;;13.80;92.10;;;;;;5057470;28;20467;-56
2024/03/16 11:51:38;;;;;;;2.40;2.17;;;13.80;90.40;;;;;;5058238;28;20484;-56
2024/03/16 11:54:06;;;;;;;5.03;1.20;;;13.80;89.40;;;;;;5057540;28;20447;-56
2024/03/16 11:56:33;;;;;;;3.17;0.90;;;13.70;90.00;;;;;;5058184;28;20465;-55
2024/03/16 11:59:04;;;;;;;1.10;1.00;;;13.60;89.80;;;;;;5057508;28;20465;-55
2024/03/16 12:01:30;;;;;;;2.90;1.53;;;13.50;90.10;;;;;;5058237;28;20472;-55
2024/03/16 12:03:57;;;;;;;1.43;1.20;;;13.30;92.10;;;;;;5057342;28;20473;-55
2024/03/16 12:06:23;;;;;;;2.17;1.40;;;13.30;91.20;;;;;;5057722;28;20449;-56
2024/03/16 12:08:50;;;;;;;3.30;1.50;;;13.20;90.50;;;;;;5057468;28;20553;-56
2024/03/16 12:11:17;;;;;;;1.40;1.20;;;13.20;90.40;;;;;;5057396;28;20860;-56
2024/03/16 12:13:44;;;;;;;3.77;1.50;;;13.20;91.00;;;;;;5057180;28;20961;-56
2024/03/16 12:16:10;;;;;;;5.23;1.60;;;13.20;90.90;;;;;;5057537;28;20448;-56
2024/03/16 12:18:37;;;;;;;1.47;1.33;;;13.20;90.80;;;;;;5057046;28;20829;-56
2024/03/16 12:21:03;;;;;;;2.20;1.13;;;13.20;91.00;;;;;;5057491;28;20221;-56
2024/03/16 12:23:30;;;;;;;4.50;2.00;;;13.20;91.00;;;;;;5057138;28;20440;-56
2024/03/16 12:25:58;;;;;;;4.23;1.93;;;13.10;91.30;;;;;;5057303;28;20436;-56
2024/03/16 12:28:25;;;;;;;3.00;1.63;;;13.10;90.90;;;;;;5057231;28;21007;-56
2024/03/16 12:30:51;;;;;;;4.03;2.13;;;13.00;91.70;;;;;;5057263;28;20451;-56
2024/03/16 12:33:18;;;;;;;3.37;2.03;;;13.00;91.80;;;;;;5057304;28;20445;-55
2024/03/16 12:35:44;;;;;;;2.43;2.17;;;13.00;92.20;;;;;;5057129;28;20210;-55
2024/03/16 12:38:11;;;;;;;3.30;1.83;;;12.90;92.10;;;;;;5056928;28;20468;-55
2024/03/16 12:40:37;;;;;;;2.10;2.00;;;12.80;93.20;;;;;;5056999;28;20233;-56
2024/03/16 12:43:04;;;;;;;3.80;2.37;;;12.80;93.30;;;;;;5056906;28;20940;-56
2024/03/16 12:45:31;;;;;;;4.97;3.87;;;12.80;93.10;;;;;;5057203;28;20547;-56
2024/03/16 12:47:58;;;;;;;3.73;2.53;;;12.80;93.40;;;;;;5056532;28;20492;-56